sensor_id;sensor_type;location;lat;lon;timestamp;P1;durP1;ratioP1;P2;durP2;ratioP2
20421;SDS011;10370;53.102;18.034;2022-08-19T00:04:34;28.02;;;22.35;;
20421;SDS011;10370;53.102;18.034;2022-08-19T00:09:56;29.73;;;22.38;;
20421;SDS011;10370;53.102;18.034;2022-08-19T00:15:18;26.60;;;22.33;;
20421;SDS011;10370;53.102;18.034;2022-08-19T00:20:41;27.17;;;23.10;;
20421;SDS011;10370;53.102;18.034;2022-08-19T00:26:06;27.58;;;22.33;;
20421;SDS011;10370;53.102;18.034;2022-08-19T00:31:27;30.55;;;23.63;;
20421;SDS011;10370;53.102;18.034;2022-08-19T00:36:48;31.15;;;23.15;;
20421;SDS011;10370;53.102;18.034;2022-08-19T00:42:09;28.35;;;22.83;;
20421;SDS011;10370;53.102;18.034;2022-08-19T00:47:30;31.70;;;24.60;;
20421;SDS011;10370;53.102;18.034;2022-08-19T00:52:51;32.92;;;23.45;;
20421;SDS011;10370;53.102;18.034;2022-08-19T00:58:13;30.52;;;24.35;;
20421;SDS011;10370;53.102;18.034;2022-08-19T01:03:37;34.35;;;25.25;;
20421;SDS011;10370;53.102;18.034;2022-08-19T01:09:17;33.25;;;25.85;;
20421;SDS011;10370;53.102;18.034;2022-08-19T01:14:39;33.72;;;25.63;;
20421;SDS011;10370;53.102;18.034;2022-08-19T01:20:01;33.63;;;25.30;;
20421;SDS011;10370;53.102;18.034;2022-08-19T01:25:26;31.77;;;24.73;;
20421;SDS011;10370;53.102;18.034;2022-08-19T01:30:55;31.70;;;26.20;;
20421;SDS011;10370;53.102;18.034;2022-08-19T01:36:41;35.95;;;27.33;;
20421;SDS011;10370;53.102;18.034;2022-08-19T01:42:07;35.67;;;26.60;;
20421;SDS011;10370;53.102;18.034;2022-08-19T01:47:30;35.47;;;26.85;;
20421;SDS011;10370;53.102;18.034;2022-08-19T01:52:51;32.40;;;26.52;;
20421;SDS011;10370;53.102;18.034;2022-08-19T01:58:22;36.13;;;26.38;;
20421;SDS011;10370;53.102;18.034;2022-08-19T02:03:50;37.67;;;26.98;;
20421;SDS011;10370;53.102;18.034;2022-08-19T02:09:13;33.55;;;26.45;;
20421;SDS011;10370;53.102;18.034;2022-08-19T02:14:35;35.10;;;26.30;;
20421;SDS011;10370;53.102;18.034;2022-08-19T02:19:56;34.42;;;26.08;;
20421;SDS011;10370;53.102;18.034;2022-08-19T02:25:17;37.25;;;27.45;;
20421;SDS011;10370;53.102;18.034;2022-08-19T02:30:39;36.22;;;26.27;;
20421;SDS011;10370;53.102;18.034;2022-08-19T02:36:05;34.88;;;27.08;;
20421;SDS011;10370;53.102;18.034;2022-08-19T02:41:28;37.22;;;27.52;;
20421;SDS011;10370;53.102;18.034;2022-08-19T02:46:51;34.40;;;27.60;;
20421;SDS011;10370;53.102;18.034;2022-08-19T02:52:12;35.33;;;27.45;;
20421;SDS011;10370;53.102;18.034;2022-08-19T02:57:34;35.78;;;26.73;;
20421;SDS011;10370;53.102;18.034;2022-08-19T03:02:56;38.42;;;26.90;;
20421;SDS011;10370;53.102;18.034;2022-08-19T03:08:17;33.88;;;26.40;;
20421;SDS011;10370;53.102;18.034;2022-08-19T03:13:38;38.80;;;25.80;;
20421;SDS011;10370;53.102;18.034;2022-08-19T03:18:59;34.15;;;26.50;;
20421;SDS011;10370;53.102;18.034;2022-08-19T03:24:21;31.50;;;25.88;;
20421;SDS011;10370;53.102;18.034;2022-08-19T03:29:42;32.63;;;25.77;;
20421;SDS011;10370;53.102;18.034;2022-08-19T03:35:03;34.80;;;25.95;;
20421;SDS011;10370;53.102;18.034;2022-08-19T03:40:25;31.33;;;25.27;;
20421;SDS011;10370;53.102;18.034;2022-08-19T03:45:46;34.40;;;25.30;;
20421;SDS011;10370;53.102;18.034;2022-08-19T03:51:14;37.28;;;26.70;;
20421;SDS011;10370;53.102;18.034;2022-08-19T03:56:38;36.22;;;25.83;;
20421;SDS011;10370;53.102;18.034;2022-08-19T04:02:03;35.25;;;25.88;;
20421;SDS011;10370;53.102;18.034;2022-08-19T04:07:29;38.28;;;25.85;;
20421;SDS011;10370;53.102;18.034;2022-08-19T04:12:50;40.83;;;26.30;;
20421;SDS011;10370;53.102;18.034;2022-08-19T04:18:11;35.63;;;26.02;;
20421;SDS011;10370;53.102;18.034;2022-08-19T04:23:34;33.85;;;25.45;;
20421;SDS011;10370;53.102;18.034;2022-08-19T04:28:58;34.72;;;27.23;;
20421;SDS011;10370;53.102;18.034;2022-08-19T04:34:21;35.80;;;26.85;;
20421;SDS011;10370;53.102;18.034;2022-08-19T04:39:44;33.95;;;25.15;;
20421;SDS011;10370;53.102;18.034;2022-08-19T04:45:23;33.47;;;25.05;;
20421;SDS011;10370;53.102;18.034;2022-08-19T04:50:44;34.97;;;25.35;;
20421;SDS011;10370;53.102;18.034;2022-08-19T04:56:10;39.47;;;26.35;;
20421;SDS011;10370;53.102;18.034;2022-08-19T05:01:33;30.60;;;24.95;;
20421;SDS011;10370;53.102;18.034;2022-08-19T05:06:55;30.58;;;23.00;;
20421;SDS011;10370;53.102;18.034;2022-08-19T05:12:18;26.80;;;20.55;;
20421;SDS011;10370;53.102;18.034;2022-08-19T05:17:39;25.90;;;19.83;;
20421;SDS011;10370;53.102;18.034;2022-08-19T05:29:05;27.02;;;19.92;;
20421;SDS011;10370;53.102;18.034;2022-08-19T05:34:30;24.73;;;19.40;;
20421;SDS011;10370;53.102;18.034;2022-08-19T05:39:53;24.55;;;21.00;;
20421;SDS011;10370;53.102;18.034;2022-08-19T05:45:14;28.13;;;18.98;;
20421;SDS011;10370;53.102;18.034;2022-08-19T05:50:35;22.73;;;17.67;;
20421;SDS011;10370;53.102;18.034;2022-08-19T05:56:07;25.40;;;17.10;;
20421;SDS011;10370;53.102;18.034;2022-08-19T06:07:57;26.55;;;17.13;;
20421;SDS011;10370;53.102;18.034;2022-08-19T06:13:21;26.77;;;18.13;;
20421;SDS011;10370;53.102;18.034;2022-08-19T06:18:42;21.27;;;17.50;;
20421;SDS011;10370;53.102;18.034;2022-08-19T06:24:05;26.70;;;17.70;;
20421;SDS011;10370;53.102;18.034;2022-08-19T06:29:27;22.83;;;17.83;;
20421;SDS011;10370;53.102;18.034;2022-08-19T06:34:49;24.15;;;17.73;;
20421;SDS011;10370;53.102;18.034;2022-08-19T06:40:11;24.80;;;17.50;;
20421;SDS011;10370;53.102;18.034;2022-08-19T06:45:33;24.95;;;17.15;;
20421;SDS011;10370;53.102;18.034;2022-08-19T06:50:58;19.60;;;16.35;;
20421;SDS011;10370;53.102;18.034;2022-08-19T06:56:20;19.73;;;15.77;;
20421;SDS011;10370;53.102;18.034;2022-08-19T07:01:45;19.10;;;15.82;;
20421;SDS011;10370;53.102;18.034;2022-08-19T07:07:12;24.70;;;15.73;;
20421;SDS011;10370;53.102;18.034;2022-08-19T07:12:39;20.38;;;15.20;;
20421;SDS011;10370;53.102;18.034;2022-08-19T07:18:01;21.23;;;14.48;;
20421;SDS011;10370;53.102;18.034;2022-08-19T07:23:21;18.02;;;14.70;;
20421;SDS011;10370;53.102;18.034;2022-08-19T07:28:42;20.98;;;14.43;;
20421;SDS011;10370;53.102;18.034;2022-08-19T07:34:06;17.67;;;13.60;;
20421;SDS011;10370;53.102;18.034;2022-08-19T07:39:29;17.27;;;13.00;;
20421;SDS011;10370;53.102;18.034;2022-08-19T07:44:52;19.08;;;12.27;;
20421;SDS011;10370;53.102;18.034;2022-08-19T07:50:13;16.38;;;11.90;;
20421;SDS011;10370;53.102;18.034;2022-08-19T07:55:34;14.50;;;11.20;;
20421;SDS011;10370;53.102;18.034;2022-08-19T08:01:03;15.50;;;11.57;;
20421;SDS011;10370;53.102;18.034;2022-08-19T08:06:25;18.73;;;11.75;;
20421;SDS011;10370;53.102;18.034;2022-08-19T08:12:06;18.52;;;10.68;;
20421;SDS011;10370;53.102;18.034;2022-08-19T08:17:52;18.92;;;11.43;;
20421;SDS011;10370;53.102;18.034;2022-08-19T08:23:14;18.10;;;10.68;;
20421;SDS011;10370;53.102;18.034;2022-08-19T08:28:44;17.58;;;11.10;;
20421;SDS011;10370;53.102;18.034;2022-08-19T08:34:08;19.25;;;11.10;;
20421;SDS011;10370;53.102;18.034;2022-08-19T08:39:30;16.25;;;11.65;;
20421;SDS011;10370;53.102;18.034;2022-08-19T08:44:54;18.48;;;11.35;;
20421;SDS011;10370;53.102;18.034;2022-08-19T08:50:23;14.90;;;11.05;;
20421;SDS011;10370;53.102;18.034;2022-08-19T08:55:49;12.73;;;11.05;;
20421;SDS011;10370;53.102;18.034;2022-08-19T09:01:10;16.23;;;11.18;;
20421;SDS011;10370;53.102;18.034;2022-08-19T09:17:39;16.95;;;9.88;;
20421;SDS011;10370;53.102;18.034;2022-08-19T09:23:00;16.48;;;10.38;;
20421;SDS011;10370;53.102;18.034;2022-08-19T09:28:21;16.50;;;10.57;;
20421;SDS011;10370;53.102;18.034;2022-08-19T09:33:46;17.92;;;10.65;;
20421;SDS011;10370;53.102;18.034;2022-08-19T09:39:07;17.17;;;10.48;;
20421;SDS011;10370;53.102;18.034;2022-08-19T09:44:33;17.85;;;10.35;;
20421;SDS011;10370;53.102;18.034;2022-08-19T09:49:54;19.88;;;10.50;;
20421;SDS011;10370;53.102;18.034;2022-08-19T09:55:15;19.65;;;10.15;;
20421;SDS011;10370;53.102;18.034;2022-08-19T10:00:37;21.98;;;10.32;;
20421;SDS011;10370;53.102;18.034;2022-08-19T10:06:00;18.10;;;9.95;;
20421;SDS011;10370;53.102;18.034;2022-08-19T10:11:22;14.93;;;10.15;;
20421;SDS011;10370;53.102;18.034;2022-08-19T10:16:47;20.00;;;10.00;;
20421;SDS011;10370;53.102;18.034;2022-08-19T10:22:09;19.83;;;10.02;;
20421;SDS011;10370;53.102;18.034;2022-08-19T10:27:34;16.77;;;9.82;;
20421;SDS011;10370;53.102;18.034;2022-08-19T10:32:55;15.93;;;10.18;;
20421;SDS011;10370;53.102;18.034;2022-08-19T10:38:16;19.13;;;9.85;;
20421;SDS011;10370;53.102;18.034;2022-08-19T10:43:37;15.75;;;9.88;;
20421;SDS011;10370;53.102;18.034;2022-08-19T10:49:00;15.75;;;10.18;;
20421;SDS011;10370;53.102;18.034;2022-08-19T10:54:22;14.45;;;9.73;;
20421;SDS011;10370;53.102;18.034;2022-08-19T10:59:50;18.92;;;10.48;;
20421;SDS011;10370;53.102;18.034;2022-08-19T11:05:11;15.15;;;9.25;;
20421;SDS011;10370;53.102;18.034;2022-08-19T11:10:34;14.95;;;9.52;;
20421;SDS011;10370;53.102;18.034;2022-08-19T11:16:00;18.88;;;9.65;;
20421;SDS011;10370;53.102;18.034;2022-08-19T11:21:31;15.60;;;9.60;;
20421;SDS011;10370;53.102;18.034;2022-08-19T11:26:54;20.08;;;9.73;;
20421;SDS011;10370;53.102;18.034;2022-08-19T11:32:22;16.70;;;9.02;;
20421;SDS011;10370;53.102;18.034;2022-08-19T11:37:43;12.45;;;8.15;;
20421;SDS011;10370;53.102;18.034;2022-08-19T11:43:04;15.63;;;8.80;;
20421;SDS011;10370;53.102;18.034;2022-08-19T11:48:26;14.20;;;8.88;;
20421;SDS011;10370;53.102;18.034;2022-08-19T11:53:47;14.95;;;9.50;;
20421;SDS011;10370;53.102;18.034;2022-08-19T11:59:10;17.73;;;8.82;;
20421;SDS011;10370;53.102;18.034;2022-08-19T12:04:34;17.33;;;10.00;;
20421;SDS011;10370;53.102;18.034;2022-08-19T12:09:55;17.90;;;9.55;;
20421;SDS011;10370;53.102;18.034;2022-08-19T12:15:16;21.08;;;10.20;;
20421;SDS011;10370;53.102;18.034;2022-08-19T12:20:38;14.32;;;9.55;;
20421;SDS011;10370;53.102;18.034;2022-08-19T12:26:03;18.40;;;9.82;;
20421;SDS011;10370;53.102;18.034;2022-08-19T12:31:24;19.00;;;8.85;;
20421;SDS011;10370;53.102;18.034;2022-08-19T12:36:48;15.02;;;8.95;;
20421;SDS011;10370;53.102;18.034;2022-08-19T12:42:10;20.67;;;9.15;;
20421;SDS011;10370;53.102;18.034;2022-08-19T12:47:32;20.20;;;9.52;;
20421;SDS011;10370;53.102;18.034;2022-08-19T12:52:53;16.00;;;9.05;;
20421;SDS011;10370;53.102;18.034;2022-08-19T12:58:14;21.05;;;9.63;;
20421;SDS011;10370;53.102;18.034;2022-08-19T13:03:35;19.95;;;9.43;;
20421;SDS011;10370;53.102;18.034;2022-08-19T13:08:59;16.98;;;8.07;;
20421;SDS011;10370;53.102;18.034;2022-08-19T13:14:20;19.85;;;8.88;;
20421;SDS011;10370;53.102;18.034;2022-08-19T13:19:41;16.10;;;8.70;;
20421;SDS011;10370;53.102;18.034;2022-08-19T13:25:03;19.42;;;8.05;;
20421;SDS011;10370;53.102;18.034;2022-08-19T13:30:25;15.57;;;8.45;;
20421;SDS011;10370;53.102;18.034;2022-08-19T13:36:06;16.38;;;8.65;;
20421;SDS011;10370;53.102;18.034;2022-08-19T13:41:27;15.63;;;7.68;;
20421;SDS011;10370;53.102;18.034;2022-08-19T13:46:48;15.18;;;7.40;;
20421;SDS011;10370;53.102;18.034;2022-08-19T13:52:13;13.90;;;7.07;;
20421;SDS011;10370;53.102;18.034;2022-08-19T13:57:34;13.85;;;7.45;;
20421;SDS011;10370;53.102;18.034;2022-08-19T14:02:59;13.23;;;7.85;;
20421;SDS011;10370;53.102;18.034;2022-08-19T14:08:19;16.52;;;8.48;;
20421;SDS011;10370;53.102;18.034;2022-08-19T14:13:41;10.93;;;7.85;;
20421;SDS011;10370;53.102;18.034;2022-08-19T14:19:02;15.82;;;7.95;;
20421;SDS011;10370;53.102;18.034;2022-08-19T14:24:23;16.67;;;8.05;;
20421;SDS011;10370;53.102;18.034;2022-08-19T14:29:44;13.35;;;8.00;;
20421;SDS011;10370;53.102;18.034;2022-08-19T14:35:05;16.58;;;8.38;;
20421;SDS011;10370;53.102;18.034;2022-08-19T14:40:30;13.55;;;8.18;;
20421;SDS011;10370;53.102;18.034;2022-08-19T14:45:52;19.65;;;7.82;;
20421;SDS011;10370;53.102;18.034;2022-08-19T14:51:13;12.88;;;8.30;;
20421;SDS011;10370;53.102;18.034;2022-08-19T14:56:34;18.15;;;8.30;;
20421;SDS011;10370;53.102;18.034;2022-08-19T15:01:55;21.10;;;10.02;;
20421;SDS011;10370;53.102;18.034;2022-08-19T15:07:16;13.48;;;8.82;;
20421;SDS011;10370;53.102;18.034;2022-08-19T15:12:37;14.13;;;8.52;;
20421;SDS011;10370;53.102;18.034;2022-08-19T15:18:04;13.40;;;7.85;;
20421;SDS011;10370;53.102;18.034;2022-08-19T15:23:25;15.50;;;8.43;;
20421;SDS011;10370;53.102;18.034;2022-08-19T15:28:46;13.50;;;7.07;;
20421;SDS011;10370;53.102;18.034;2022-08-19T15:34:08;12.95;;;6.63;;
20421;SDS011;10370;53.102;18.034;2022-08-19T15:39:29;12.00;;;7.05;;
20421;SDS011;10370;53.102;18.034;2022-08-19T15:44:50;20.42;;;7.68;;
20421;SDS011;10370;53.102;18.034;2022-08-19T15:50:12;10.60;;;6.32;;
20421;SDS011;10370;53.102;18.034;2022-08-19T15:55:40;12.15;;;7.00;;
20421;SDS011;10370;53.102;18.034;2022-08-19T16:01:05;11.43;;;6.65;;
20421;SDS011;10370;53.102;18.034;2022-08-19T16:06:47;19.05;;;6.95;;
20421;SDS011;10370;53.102;18.034;2022-08-19T16:12:10;16.40;;;7.03;;
20421;SDS011;10370;53.102;18.034;2022-08-19T16:17:31;16.48;;;6.38;;
20421;SDS011;10370;53.102;18.034;2022-08-19T16:22:52;12.45;;;6.28;;
20421;SDS011;10370;53.102;18.034;2022-08-19T16:28:13;9.68;;;6.20;;
20421;SDS011;10370;53.102;18.034;2022-08-19T16:33:34;11.80;;;6.57;;
20421;SDS011;10370;53.102;18.034;2022-08-19T16:38:55;18.95;;;9.90;;
20421;SDS011;10370;53.102;18.034;2022-08-19T16:44:17;19.83;;;15.65;;
20421;SDS011;10370;53.102;18.034;2022-08-19T16:49:40;31.75;;;15.25;;
20421;SDS011;10370;53.102;18.034;2022-08-19T16:55:13;18.83;;;11.73;;
20421;SDS011;10370;53.102;18.034;2022-08-19T17:00:36;13.93;;;9.07;;
20421;SDS011;10370;53.102;18.034;2022-08-19T17:05:57;24.48;;;8.00;;
20421;SDS011;10370;53.102;18.034;2022-08-19T17:11:23;20.05;;;7.40;;
20421;SDS011;10370;53.102;18.034;2022-08-19T17:16:45;21.52;;;7.82;;
20421;SDS011;10370;53.102;18.034;2022-08-19T17:22:06;20.30;;;7.65;;
20421;SDS011;10370;53.102;18.034;2022-08-19T17:27:29;21.60;;;11.00;;
20421;SDS011;10370;53.102;18.034;2022-08-19T17:32:51;19.20;;;11.98;;
20421;SDS011;10370;53.102;18.034;2022-08-19T17:38:13;17.77;;;13.10;;
20421;SDS011;10370;53.102;18.034;2022-08-19T17:43:36;24.73;;;13.45;;
20421;SDS011;10370;53.102;18.034;2022-08-19T17:49:02;19.23;;;12.95;;
20421;SDS011;10370;53.102;18.034;2022-08-19T17:54:22;21.63;;;13.55;;
20421;SDS011;10370;53.102;18.034;2022-08-19T17:59:44;27.48;;;14.02;;
20421;SDS011;10370;53.102;18.034;2022-08-19T18:05:05;23.73;;;13.35;;
20421;SDS011;10370;53.102;18.034;2022-08-19T18:10:27;26.73;;;14.55;;
20421;SDS011;10370;53.102;18.034;2022-08-19T18:15:53;17.75;;;12.20;;
20421;SDS011;10370;53.102;18.034;2022-08-19T18:21:16;27.50;;;13.25;;
20421;SDS011;10370;53.102;18.034;2022-08-19T18:26:38;21.67;;;13.70;;
20421;SDS011;10370;53.102;18.034;2022-08-19T18:31:59;27.40;;;14.32;;
20421;SDS011;10370;53.102;18.034;2022-08-19T18:37:19;27.08;;;15.73;;
20421;SDS011;10370;53.102;18.034;2022-08-19T18:42:44;25.73;;;15.68;;
20421;SDS011;10370;53.102;18.034;2022-08-19T18:48:25;23.75;;;16.15;;
20421;SDS011;10370;53.102;18.034;2022-08-19T18:54:22;25.88;;;16.30;;
20421;SDS011;10370;53.102;18.034;2022-08-19T18:59:45;31.73;;;16.17;;
20421;SDS011;10370;53.102;18.034;2022-08-19T19:05:07;31.83;;;16.63;;
20421;SDS011;10370;53.102;18.034;2022-08-19T19:10:28;34.40;;;16.75;;
20421;SDS011;10370;53.102;18.034;2022-08-19T19:15:49;31.17;;;16.70;;
20421;SDS011;10370;53.102;18.034;2022-08-19T19:21:11;32.88;;;17.65;;
20421;SDS011;10370;53.102;18.034;2022-08-19T19:26:31;28.77;;;17.85;;
20421;SDS011;10370;53.102;18.034;2022-08-19T19:31:52;25.38;;;17.33;;
20421;SDS011;10370;53.102;18.034;2022-08-19T19:37:15;33.72;;;19.60;;
20421;SDS011;10370;53.102;18.034;2022-08-19T19:42:36;29.52;;;18.13;;
20421;SDS011;10370;53.102;18.034;2022-08-19T19:47:57;42.30;;;18.98;;
20421;SDS011;10370;53.102;18.034;2022-08-19T19:53:19;30.88;;;18.08;;
20421;SDS011;10370;53.102;18.034;2022-08-19T19:58:41;27.65;;;16.40;;
20421;SDS011;10370;53.102;18.034;2022-08-19T20:04:02;22.17;;;16.88;;
20421;SDS011;10370;53.102;18.034;2022-08-19T20:09:23;24.58;;;16.67;;
20421;SDS011;10370;53.102;18.034;2022-08-19T20:14:57;24.88;;;16.88;;
20421;SDS011;10370;53.102;18.034;2022-08-19T20:20:19;24.20;;;16.75;;
20421;SDS011;10370;53.102;18.034;2022-08-19T20:25:41;28.65;;;17.75;;
20421;SDS011;10370;53.102;18.034;2022-08-19T20:31:02;24.25;;;17.88;;
20421;SDS011;10370;53.102;18.034;2022-08-19T20:36:23;26.23;;;18.08;;
20421;SDS011;10370;53.102;18.034;2022-08-19T20:41:44;27.38;;;18.67;;
20421;SDS011;10370;53.102;18.034;2022-08-19T20:47:05;30.50;;;19.23;;
20421;SDS011;10370;53.102;18.034;2022-08-19T20:52:27;28.02;;;19.45;;
20421;SDS011;10370;53.102;18.034;2022-08-19T20:57:49;27.70;;;20.67;;
20421;SDS011;10370;53.102;18.034;2022-08-19T21:03:11;29.90;;;19.98;;
20421;SDS011;10370;53.102;18.034;2022-08-19T21:08:35;32.47;;;20.85;;
20421;SDS011;10370;53.102;18.034;2022-08-19T21:13:57;31.48;;;21.83;;
20421;SDS011;10370;53.102;18.034;2022-08-19T21:19:18;30.48;;;20.90;;
20421;SDS011;10370;53.102;18.034;2022-08-19T21:24:43;31.50;;;21.10;;
20421;SDS011;10370;53.102;18.034;2022-08-19T21:30:04;29.52;;;21.08;;
20421;SDS011;10370;53.102;18.034;2022-08-19T21:35:25;30.05;;;20.83;;
20421;SDS011;10370;53.102;18.034;2022-08-19T21:40:48;32.17;;;20.70;;
20421;SDS011;10370;53.102;18.034;2022-08-19T21:46:10;29.02;;;21.35;;
20421;SDS011;10370;53.102;18.034;2022-08-19T21:51:30;33.10;;;21.75;;
20421;SDS011;10370;53.102;18.034;2022-08-19T21:56:52;29.33;;;22.55;;
20421;SDS011;10370;53.102;18.034;2022-08-19T22:02:13;33.30;;;22.05;;
20421;SDS011;10370;53.102;18.034;2022-08-19T22:07:41;31.58;;;22.17;;
20421;SDS011;10370;53.102;18.034;2022-08-19T22:13:03;31.30;;;22.27;;
20421;SDS011;10370;53.102;18.034;2022-08-19T22:18:25;34.50;;;23.63;;
20421;SDS011;10370;53.102;18.034;2022-08-19T22:23:47;31.98;;;22.63;;
20421;SDS011;10370;53.102;18.034;2022-08-19T22:29:08;35.97;;;23.08;;
20421;SDS011;10370;53.102;18.034;2022-08-19T22:34:29;30.55;;;22.58;;
20421;SDS011;10370;53.102;18.034;2022-08-19T22:39:50;32.58;;;23.20;;
20421;SDS011;10370;53.102;18.034;2022-08-19T22:45:12;35.83;;;23.08;;
20421;SDS011;10370;53.102;18.034;2022-08-19T22:50:37;31.60;;;22.83;;
20421;SDS011;10370;53.102;18.034;2022-08-19T22:56:01;35.30;;;23.77;;
20421;SDS011;10370;53.102;18.034;2022-08-19T23:01:23;38.42;;;25.13;;
20421;SDS011;10370;53.102;18.034;2022-08-19T23:06:46;39.22;;;25.65;;
20421;SDS011;10370;53.102;18.034;2022-08-19T23:12:07;46.55;;;28.70;;
20421;SDS011;10370;53.102;18.034;2022-08-19T23:17:32;60.95;;;36.15;;
20421;SDS011;10370;53.102;18.034;2022-08-19T23:23:10;47.72;;;32.03;;
20421;SDS011;10370;53.102;18.034;2022-08-19T23:28:33;44.75;;;29.35;;
20421;SDS011;10370;53.102;18.034;2022-08-19T23:34:13;46.00;;;30.33;;
20421;SDS011;10370;53.102;18.034;2022-08-19T23:39:34;46.83;;;31.20;;
20421;SDS011;10370;53.102;18.034;2022-08-19T23:44:58;44.33;;;30.90;;
20421;SDS011;10370;53.102;18.034;2022-08-19T23:50:22;48.17;;;31.98;;
20421;SDS011;10370;53.102;18.034;2022-08-19T23:55:45;48.58;;;31.55;;
